Scottsbluff, NE (69361)

3:06 PM MST on February 06, 2016 (GMT -0700)
Scottsbluff Main St Mrkt | | Change Station
CLOSE
Current Station
Personal Weather Station
Location: Scottsbluff, NE
Elevation: 3881 ft
Nearby Weather Stations
Active Advisory: High Wind Watch

Elev 3881 ft 41.86 °N, 103.67 °W | Updated 12 minutes ago

Clear
Clear
44.1 °F
Feels Like 39 °F
N
9.0
Wind Variable Wind from SSE
Gusts 29.0 mph

Today
High -- | Low -- °F
--% Chance of Precip.
Yesterday
High -- | Low -- °F
Precip. -- in
Pressure 30.09 in
Visibility 10.0 miles
Clouds Clear
Windchill 39 °F
Dew Point 27 °F
Humidity 52%
Rainfall 0.00 in
Snow Depth Not available.
7:02 AM 5:15 PM
Waning Crescent, 4% visible
METAR KBFF 062153Z AUTO 29013G24KT 10SM CLR 06/M04 A3001 RMK AO2 PK WND 29027/2058 SLP188 T00611039
Pressure 30.09 in
Visibility 10.0 miles
Clouds Clear
Windchill 39 °F
Dew Point 27 °F
Humidity 52%
Rainfall 0.00 in
Snow Depth Not available.
7:02 AM 5:15 PM
Waning Crescent, 4% visible
METAR KBFF 062153Z AUTO 29013G24KT 10SM CLR 06/M04 A3001 RMK AO2 PK WND 29027/2058 SLP188 T00611039

10-Day Weather Forecast

Almanac

Astronomy

Feb. 06, 2016 Rise Set
Actual Time
Civil Twilight
Nautical Twilight
Astronomical Twilight
Moon
Length of Visible Light
Length of Day
Tomorrow will be .
, % of the Moon is Illuminated

Today's Extremes

State Highs State Lows

Community

WunderPhotos

Upload Photos

1,891,082 photos uploaded!

WunderBlog® & News

Nearby

Air Quality

  Air Quality AQ Index Pollutant
Not available.

Snow Depth

Station Depth Elevation

Earthquake Activity

City Distance Mag. Time & Date
Minimum magnitude displayed is 2.5.

Coastal Water Temperatures

Place Temperature

Stations

Nearby Weather Stations

Station Location Temp. Windchill Dew Point Humidity Wind Precip. Elev Updated Type
                   

Watches & Warnings

High Wind Watch
Issued: 12:48 PM MST Feb. 6, 2016 – National Weather Service

... High wind watch remains in effect from Sunday morning through
Sunday afternoon...

* timing... midmorning Sunday through Sunday evening.

* Winds... northwest 30 to 40 mph with gusts to 60 mph.

* Impacts... mainly to transportation. Travel may be hazardous to
light weight and high profile vehicles... especially on east to
west oriented roadways.

Precautionary/preparedness actions...

A high wind watch means there is the potential for a hazardous
high wind event. Sustained winds of at least 40 mph... or gusts of
58 mph or stronger may occur. Continue to monitor the latest
forecasts.